sensor_id;sensor_type;location;lat;lon;timestamp;P1;durP1;ratioP1;P2;durP2;ratioP2
71091;SDS011;58751;50.708;7.134;2023-03-09T00:00:12;18.80;;;13.63;;
71091;SDS011;58751;50.708;7.134;2023-03-09T00:02:38;20.60;;;14.27;;
71091;SDS011;58751;50.708;7.134;2023-03-09T00:05:05;19.27;;;15.63;;
71091;SDS011;58751;50.708;7.134;2023-03-09T00:07:30;17.58;;;13.52;;
71091;SDS011;58751;50.708;7.134;2023-03-09T00:09:56;20.67;;;14.77;;
71091;SDS011;58751;50.708;7.134;2023-03-09T00:12:21;16.77;;;13.33;;
71091;SDS011;58751;50.708;7.134;2023-03-09T00:14:46;18.10;;;15.07;;
71091;SDS011;58751;50.708;7.134;2023-03-09T00:17:11;20.80;;;13.93;;
71091;SDS011;58751;50.708;7.134;2023-03-09T00:19:37;18.23;;;14.27;;
71091;SDS011;58751;50.708;7.134;2023-03-09T00:22:03;17.73;;;14.33;;
71091;SDS011;58751;50.708;7.134;2023-03-09T00:24:28;18.05;;;15.70;;
71091;SDS011;58751;50.708;7.134;2023-03-09T00:26:54;16.27;;;12.80;;
71091;SDS011;58751;50.708;7.134;2023-03-09T00:29:20;18.65;;;14.50;;
71091;SDS011;58751;50.708;7.134;2023-03-09T00:31:45;17.20;;;14.30;;
71091;SDS011;58751;50.708;7.134;2023-03-09T00:34:11;17.30;;;14.50;;
71091;SDS011;58751;50.708;7.134;2023-03-09T00:36:37;15.63;;;13.63;;
71091;SDS011;58751;50.708;7.134;2023-03-09T00:39:04;17.17;;;15.00;;
71091;SDS011;58751;50.708;7.134;2023-03-09T00:41:30;20.83;;;15.77;;
71091;SDS011;58751;50.708;7.134;2023-03-09T00:43:55;18.83;;;14.43;;
71091;SDS011;58751;50.708;7.134;2023-03-09T00:46:20;18.67;;;15.50;;
71091;SDS011;58751;50.708;7.134;2023-03-09T00:48:45;22.83;;;16.70;;
71091;SDS011;58751;50.708;7.134;2023-03-09T00:51:11;24.60;;;17.60;;
71091;SDS011;58751;50.708;7.134;2023-03-09T00:53:36;22.10;;;16.50;;
71091;SDS011;58751;50.708;7.134;2023-03-09T00:56:03;20.50;;;16.47;;
71091;SDS011;58751;50.708;7.134;2023-03-09T00:58:29;21.67;;;17.95;;
71091;SDS011;58751;50.708;7.134;2023-03-09T01:00:54;22.47;;;17.97;;
71091;SDS011;58751;50.708;7.134;2023-03-09T01:03:20;19.13;;;16.97;;
71091;SDS011;58751;50.708;7.134;2023-03-09T01:05:45;18.97;;;15.80;;
71091;SDS011;58751;50.708;7.134;2023-03-09T01:08:10;19.17;;;15.87;;
71091;SDS011;58751;50.708;7.134;2023-03-09T01:10:37;20.50;;;15.40;;
71091;SDS011;58751;50.708;7.134;2023-03-09T01:13:03;17.30;;;14.70;;
71091;SDS011;58751;50.708;7.134;2023-03-09T01:15:28;20.77;;;16.83;;
71091;SDS011;58751;50.708;7.134;2023-03-09T01:17:54;20.17;;;16.50;;
71091;SDS011;58751;50.708;7.134;2023-03-09T01:20:19;16.60;;;13.53;;
71091;SDS011;58751;50.708;7.134;2023-03-09T01:22:44;18.70;;;14.27;;
71091;SDS011;58751;50.708;7.134;2023-03-09T01:25:09;16.93;;;15.13;;
71091;SDS011;58751;50.708;7.134;2023-03-09T01:27:34;19.50;;;14.67;;
71091;SDS011;58751;50.708;7.134;2023-03-09T01:30:01;17.53;;;15.20;;
71091;SDS011;58751;50.708;7.134;2023-03-09T01:32:26;16.38;;;13.82;;
71091;SDS011;58751;50.708;7.134;2023-03-09T01:34:51;20.87;;;15.40;;
71091;SDS011;58751;50.708;7.134;2023-03-09T01:37:17;18.60;;;15.60;;
71091;SDS011;58751;50.708;7.134;2023-03-09T01:39:42;18.67;;;15.30;;
71091;SDS011;58751;50.708;7.134;2023-03-09T01:42:07;19.83;;;14.90;;
71091;SDS011;58751;50.708;7.134;2023-03-09T01:44:33;17.37;;;13.70;;
71091;SDS011;58751;50.708;7.134;2023-03-09T01:46:59;19.70;;;15.87;;
71091;SDS011;58751;50.708;7.134;2023-03-09T01:49:29;20.65;;;15.70;;
71091;SDS011;58751;50.708;7.134;2023-03-09T01:52:01;20.45;;;15.02;;
71091;SDS011;58751;50.708;7.134;2023-03-09T01:54:28;18.50;;;14.50;;
71091;SDS011;58751;50.708;7.134;2023-03-09T01:56:57;18.40;;;14.95;;
71091;SDS011;58751;50.708;7.134;2023-03-09T01:59:24;20.85;;;16.13;;
71091;SDS011;58751;50.708;7.134;2023-03-09T02:01:49;20.27;;;16.65;;
71091;SDS011;58751;50.708;7.134;2023-03-09T02:07:00;17.83;;;14.93;;
71091;SDS011;58751;50.708;7.134;2023-03-09T02:09:28;23.85;;;16.70;;
71091;SDS011;58751;50.708;7.134;2023-03-09T02:11:55;17.05;;;14.63;;
71091;SDS011;58751;50.708;7.134;2023-03-09T02:14:20;18.53;;;15.60;;
71091;SDS011;58751;50.708;7.134;2023-03-09T02:16:46;18.10;;;15.30;;
71091;SDS011;58751;50.708;7.134;2023-03-09T02:19:14;20.77;;;16.27;;
71091;SDS011;58751;50.708;7.134;2023-03-09T02:21:42;22.73;;;16.67;;
71091;SDS011;58751;50.708;7.134;2023-03-09T02:24:12;20.42;;;16.63;;
71091;SDS011;58751;50.708;7.134;2023-03-09T02:26:40;22.90;;;16.50;;
71091;SDS011;58751;50.708;7.134;2023-03-09T02:29:08;20.38;;;15.38;;
71091;SDS011;58751;50.708;7.134;2023-03-09T02:31:33;20.98;;;15.63;;
71091;SDS011;58751;50.708;7.134;2023-03-09T02:33:59;20.43;;;16.30;;
71091;SDS011;58751;50.708;7.134;2023-03-09T02:36:24;21.37;;;15.63;;
71091;SDS011;58751;50.708;7.134;2023-03-09T02:38:49;18.07;;;15.43;;
71091;SDS011;58751;50.708;7.134;2023-03-09T02:41:14;20.20;;;14.70;;
71091;SDS011;58751;50.708;7.134;2023-03-09T02:43:41;20.00;;;14.70;;
71091;SDS011;58751;50.708;7.134;2023-03-09T02:46:09;17.77;;;15.15;;
71091;SDS011;58751;50.708;7.134;2023-03-09T02:48:34;17.55;;;14.30;;
71091;SDS011;58751;50.708;7.134;2023-03-09T02:51:00;16.17;;;13.83;;
71091;SDS011;58751;50.708;7.134;2023-03-09T02:53:25;16.70;;;12.90;;
71091;SDS011;58751;50.708;7.134;2023-03-09T02:55:50;17.53;;;13.93;;
71091;SDS011;58751;50.708;7.134;2023-03-09T02:58:15;15.37;;;12.50;;
71091;SDS011;58751;50.708;7.134;2023-03-09T03:00:40;13.70;;;10.73;;
71091;SDS011;58751;50.708;7.134;2023-03-09T03:03:07;16.43;;;10.70;;
71091;SDS011;58751;50.708;7.134;2023-03-09T03:05:32;15.80;;;11.90;;
71091;SDS011;58751;50.708;7.134;2023-03-09T03:07:57;12.90;;;11.60;;
71091;SDS011;58751;50.708;7.134;2023-03-09T03:10:23;12.17;;;9.50;;
71091;SDS011;58751;50.708;7.134;2023-03-09T03:12:48;11.87;;;10.37;;
71091;SDS011;58751;50.708;7.134;2023-03-09T03:15:13;10.57;;;9.40;;
71091;SDS011;58751;50.708;7.134;2023-03-09T03:17:38;14.03;;;9.83;;
71091;SDS011;58751;50.708;7.134;2023-03-09T03:20:05;12.13;;;9.60;;
71091;SDS011;58751;50.708;7.134;2023-03-09T03:22:31;11.82;;;9.63;;
71091;SDS011;58751;50.708;7.134;2023-03-09T03:24:56;10.80;;;9.30;;
71091;SDS011;58751;50.708;7.134;2023-03-09T03:27:21;11.47;;;8.70;;
71091;SDS011;58751;50.708;7.134;2023-03-09T03:29:46;12.10;;;9.27;;
71091;SDS011;58751;50.708;7.134;2023-03-09T03:32:11;11.10;;;8.80;;
71091;SDS011;58751;50.708;7.134;2023-03-09T03:34:37;11.37;;;8.27;;
71091;SDS011;58751;50.708;7.134;2023-03-09T03:37:03;9.90;;;7.80;;
71091;SDS011;58751;50.708;7.134;2023-03-09T03:39:28;9.43;;;7.75;;
71091;SDS011;58751;50.708;7.134;2023-03-09T03:41:54;10.63;;;7.73;;
71091;SDS011;58751;50.708;7.134;2023-03-09T03:44:19;7.93;;;7.13;;
71091;SDS011;58751;50.708;7.134;2023-03-09T03:46:44;9.27;;;7.37;;
71091;SDS011;58751;50.708;7.134;2023-03-09T03:49:09;9.97;;;7.70;;
71091;SDS011;58751;50.708;7.134;2023-03-09T03:51:35;11.20;;;6.63;;
71091;SDS011;58751;50.708;7.134;2023-03-09T03:54:02;9.20;;;7.60;;
71091;SDS011;58751;50.708;7.134;2023-03-09T03:56:27;9.30;;;7.70;;
71091;SDS011;58751;50.708;7.134;2023-03-09T03:58:52;7.83;;;6.77;;
71091;SDS011;58751;50.708;7.134;2023-03-09T04:01:18;9.07;;;7.03;;
71091;SDS011;58751;50.708;7.134;2023-03-09T04:03:43;8.13;;;6.47;;
71091;SDS011;58751;50.708;7.134;2023-03-09T04:06:08;8.10;;;7.30;;
71091;SDS011;58751;50.708;7.134;2023-03-09T04:08:33;10.50;;;8.00;;
71091;SDS011;58751;50.708;7.134;2023-03-09T04:11:03;11.07;;;8.33;;
71091;SDS011;58751;50.708;7.134;2023-03-09T04:13:28;9.55;;;7.55;;
71091;SDS011;58751;50.708;7.134;2023-03-09T04:15:54;9.23;;;8.10;;
71091;SDS011;58751;50.708;7.134;2023-03-09T04:18:19;8.80;;;7.57;;
71091;SDS011;58751;50.708;7.134;2023-03-09T04:20:44;15.00;;;10.70;;
71091;SDS011;58751;50.708;7.134;2023-03-09T04:23:09;10.90;;;9.50;;
71091;SDS011;58751;50.708;7.134;2023-03-09T04:25:35;13.73;;;11.13;;
71091;SDS011;58751;50.708;7.134;2023-03-09T04:28:01;12.33;;;10.30;;
71091;SDS011;58751;50.708;7.134;2023-03-09T04:30:26;13.02;;;11.10;;
71091;SDS011;58751;50.708;7.134;2023-03-09T04:32:52;13.07;;;10.47;;
71091;SDS011;58751;50.708;7.134;2023-03-09T04:35:17;15.50;;;11.33;;
71091;SDS011;58751;50.708;7.134;2023-03-09T04:37:43;17.50;;;11.70;;
71091;SDS011;58751;50.708;7.134;2023-03-09T04:40:09;13.47;;;11.57;;
71091;SDS011;58751;50.708;7.134;2023-03-09T04:42:34;17.05;;;14.57;;
71091;SDS011;58751;50.708;7.134;2023-03-09T04:45:01;18.03;;;13.27;;
71091;SDS011;58751;50.708;7.134;2023-03-09T04:47:26;16.25;;;12.48;;
71091;SDS011;58751;50.708;7.134;2023-03-09T04:49:51;17.33;;;12.40;;
71091;SDS011;58751;50.708;7.134;2023-03-09T04:52:16;15.50;;;12.83;;
71091;SDS011;58751;50.708;7.134;2023-03-09T04:54:42;14.97;;;12.77;;
71091;SDS011;58751;50.708;7.134;2023-03-09T04:57:07;18.30;;;15.20;;
71091;SDS011;58751;50.708;7.134;2023-03-09T04:59:32;20.77;;;15.90;;
71091;SDS011;58751;50.708;7.134;2023-03-09T05:01:59;21.00;;;16.17;;
71091;SDS011;58751;50.708;7.134;2023-03-09T05:04:24;21.73;;;15.50;;
71091;SDS011;58751;50.708;7.134;2023-03-09T05:06:49;21.20;;;16.50;;
71091;SDS011;58751;50.708;7.134;2023-03-09T05:09:15;25.70;;;17.40;;
71091;SDS011;58751;50.708;7.134;2023-03-09T05:11:41;19.33;;;15.67;;
71091;SDS011;58751;50.708;7.134;2023-03-09T05:14:06;22.50;;;16.10;;
71091;SDS011;58751;50.708;7.134;2023-03-09T05:16:31;22.23;;;16.37;;
71091;SDS011;58751;50.708;7.134;2023-03-09T05:18:58;21.33;;;16.80;;
71091;SDS011;58751;50.708;7.134;2023-03-09T05:21:23;24.10;;;16.17;;
71091;SDS011;58751;50.708;7.134;2023-03-09T05:23:48;30.80;;;20.30;;
71091;SDS011;58751;50.708;7.134;2023-03-09T05:26:13;22.00;;;17.30;;
71091;SDS011;58751;50.708;7.134;2023-03-09T05:28:42;20.83;;;17.03;;
71091;SDS011;58751;50.708;7.134;2023-03-09T05:31:07;20.95;;;15.57;;
71091;SDS011;58751;50.708;7.134;2023-03-09T05:33:35;24.13;;;18.10;;
71091;SDS011;58751;50.708;7.134;2023-03-09T05:36:02;23.65;;;16.77;;
71091;SDS011;58751;50.708;7.134;2023-03-09T05:38:27;28.63;;;18.25;;
71091;SDS011;58751;50.708;7.134;2023-03-09T05:40:52;25.33;;;17.77;;
71091;SDS011;58751;50.708;7.134;2023-03-09T05:43:18;23.63;;;16.50;;
71091;SDS011;58751;50.708;7.134;2023-03-09T05:45:43;26.40;;;16.80;;
71091;SDS011;58751;50.708;7.134;2023-03-09T05:48:08;30.90;;;18.13;;
71091;SDS011;58751;50.708;7.134;2023-03-09T05:50:33;22.17;;;15.80;;
71091;SDS011;58751;50.708;7.134;2023-03-09T05:53:00;23.20;;;16.60;;
71091;SDS011;58751;50.708;7.134;2023-03-09T05:55:25;22.98;;;16.85;;
71091;SDS011;58751;50.708;7.134;2023-03-09T05:57:50;25.40;;;18.00;;
71091;SDS011;58751;50.708;7.134;2023-03-09T06:00:16;24.20;;;16.40;;
71091;SDS011;58751;50.708;7.134;2023-03-09T06:02:41;29.23;;;20.10;;
71091;SDS011;58751;50.708;7.134;2023-03-09T06:05:07;29.37;;;19.20;;
71091;SDS011;58751;50.708;7.134;2023-03-09T06:07:32;29.63;;;19.37;;
71091;SDS011;58751;50.708;7.134;2023-03-09T06:09:58;29.33;;;17.03;;
71091;SDS011;58751;50.708;7.134;2023-03-09T06:12:24;26.70;;;18.60;;
71091;SDS011;58751;50.708;7.134;2023-03-09T06:14:49;25.10;;;17.63;;
71091;SDS011;58751;50.708;7.134;2023-03-09T06:17:14;22.83;;;16.50;;
71091;SDS011;58751;50.708;7.134;2023-03-09T06:19:40;31.30;;;20.30;;
71091;SDS011;58751;50.708;7.134;2023-03-09T06:22:05;28.97;;;18.50;;
71091;SDS011;58751;50.708;7.134;2023-03-09T06:24:30;28.10;;;16.90;;
71091;SDS011;58751;50.708;7.134;2023-03-09T06:26:57;21.63;;;14.83;;
71091;SDS011;58751;50.708;7.134;2023-03-09T06:29:22;22.75;;;17.25;;
71091;SDS011;58751;50.708;7.134;2023-03-09T06:31:48;19.67;;;14.50;;
71091;SDS011;58751;50.708;7.134;2023-03-09T06:34:13;17.20;;;13.10;;
71091;SDS011;58751;50.708;7.134;2023-03-09T06:36:38;18.93;;;13.50;;
71091;SDS011;58751;50.708;7.134;2023-03-09T06:39:03;20.97;;;14.27;;
71091;SDS011;58751;50.708;7.134;2023-03-09T06:41:28;20.37;;;14.00;;
71091;SDS011;58751;50.708;7.134;2023-03-09T06:43:55;20.80;;;14.17;;
71091;SDS011;58751;50.708;7.134;2023-03-09T06:46:20;21.17;;;14.70;;
71091;SDS011;58751;50.708;7.134;2023-03-09T06:48:47;17.23;;;14.07;;
71091;SDS011;58751;50.708;7.134;2023-03-09T06:51:13;21.45;;;14.07;;
71091;SDS011;58751;50.708;7.134;2023-03-09T06:53:38;16.77;;;11.40;;
71091;SDS011;58751;50.708;7.134;2023-03-09T06:56:03;18.10;;;13.00;;
71091;SDS011;58751;50.708;7.134;2023-03-09T06:58:29;17.87;;;12.90;;
71091;SDS011;58751;50.708;7.134;2023-03-09T07:00:55;18.83;;;13.00;;
71091;SDS011;58751;50.708;7.134;2023-03-09T07:03:20;20.50;;;12.82;;
71091;SDS011;58751;50.708;7.134;2023-03-09T07:05:46;15.87;;;11.50;;
71091;SDS011;58751;50.708;7.134;2023-03-09T07:08:11;19.30;;;14.17;;
71091;SDS011;58751;50.708;7.134;2023-03-09T07:10:36;16.50;;;12.17;;
71091;SDS011;58751;50.708;7.134;2023-03-09T07:13:01;16.90;;;11.80;;
71091;SDS011;58751;50.708;7.134;2023-03-09T07:15:26;21.23;;;13.73;;
71091;SDS011;58751;50.708;7.134;2023-03-09T07:17:53;19.13;;;13.43;;
71091;SDS011;58751;50.708;7.134;2023-03-09T07:20:18;17.60;;;12.55;;
71091;SDS011;58751;50.708;7.134;2023-03-09T07:22:43;21.47;;;13.90;;
71091;SDS011;58751;50.708;7.134;2023-03-09T07:25:09;15.77;;;11.10;;
71091;SDS011;58751;50.708;7.134;2023-03-09T07:27:34;15.23;;;11.70;;
71091;SDS011;58751;50.708;7.134;2023-03-09T07:29:59;15.30;;;11.70;;
71091;SDS011;58751;50.708;7.134;2023-03-09T07:32:24;18.03;;;12.03;;
71091;SDS011;58751;50.708;7.134;2023-03-09T07:34:51;14.07;;;11.23;;
71091;SDS011;58751;50.708;7.134;2023-03-09T07:37:16;17.23;;;12.45;;
71091;SDS011;58751;50.708;7.134;2023-03-09T07:39:41;13.70;;;10.90;;
71091;SDS011;58751;50.708;7.134;2023-03-09T07:42:07;15.70;;;11.70;;
71091;SDS011;58751;50.708;7.134;2023-03-09T07:44:32;12.07;;;8.97;;
71091;SDS011;58751;50.708;7.134;2023-03-09T07:46:57;12.70;;;8.70;;
71091;SDS011;58751;50.708;7.134;2023-03-09T07:49:22;11.80;;;9.20;;
71091;SDS011;58751;50.708;7.134;2023-03-09T07:51:49;14.40;;;11.40;;
71091;SDS011;58751;50.708;7.134;2023-03-09T07:54:14;12.10;;;10.52;;
71091;SDS011;58751;50.708;7.134;2023-03-09T07:56:40;11.77;;;9.57;;
71091;SDS011;58751;50.708;7.134;2023-03-09T07:59:05;13.13;;;10.20;;
71091;SDS011;58751;50.708;7.134;2023-03-09T08:01:30;12.67;;;9.47;;
71091;SDS011;58751;50.708;7.134;2023-03-09T08:03:55;19.20;;;10.50;;
71091;SDS011;58751;50.708;7.134;2023-03-09T08:06:21;16.27;;;11.00;;
71091;SDS011;58751;50.708;7.134;2023-03-09T08:08:47;11.70;;;9.50;;
71091;SDS011;58751;50.708;7.134;2023-03-09T08:11:13;11.43;;;9.30;;
71091;SDS011;58751;50.708;7.134;2023-03-09T08:13:38;12.10;;;8.90;;
71091;SDS011;58751;50.708;7.134;2023-03-09T08:16:04;14.17;;;10.87;;
71091;SDS011;58751;50.708;7.134;2023-03-09T08:18:30;11.80;;;8.88;;
71091;SDS011;58751;50.708;7.134;2023-03-09T08:21:01;12.23;;;9.90;;
71091;SDS011;58751;50.708;7.134;2023-03-09T08:23:27;10.68;;;8.07;;
71091;SDS011;58751;50.708;7.134;2023-03-09T08:25:54;15.17;;;8.63;;
71091;SDS011;58751;50.708;7.134;2023-03-09T08:28:19;10.07;;;8.48;;
71091;SDS011;58751;50.708;7.134;2023-03-09T08:30:44;9.23;;;7.73;;
71091;SDS011;58751;50.708;7.134;2023-03-09T08:33:09;11.63;;;8.47;;
71091;SDS011;58751;50.708;7.134;2023-03-09T08:35:35;9.20;;;7.80;;
71091;SDS011;58751;50.708;7.134;2023-03-09T08:38:00;11.53;;;8.17;;
71091;SDS011;58751;50.708;7.134;2023-03-09T08:40:25;10.97;;;8.53;;
71091;SDS011;58751;50.708;7.134;2023-03-09T08:42:52;11.20;;;8.83;;
71091;SDS011;58751;50.708;7.134;2023-03-09T08:45:17;10.20;;;8.35;;
71091;SDS011;58751;50.708;7.134;2023-03-09T08:47:43;10.43;;;8.70;;
71091;SDS011;58751;50.708;7.134;2023-03-09T08:50:08;12.37;;;8.37;;
71091;SDS011;58751;50.708;7.134;2023-03-09T08:52:34;9.40;;;8.00;;
71091;SDS011;58751;50.708;7.134;2023-03-09T08:54:59;7.27;;;6.27;;
71091;SDS011;58751;50.708;7.134;2023-03-09T08:57:24;7.60;;;6.30;;
71091;SDS011;58751;50.708;7.134;2023-03-09T08:59:51;6.13;;;5.60;;
71091;SDS011;58751;50.708;7.134;2023-03-09T09:02:16;8.07;;;6.95;;
71091;SDS011;58751;50.708;7.134;2023-03-09T09:04:41;7.10;;;5.50;;
71091;SDS011;58751;50.708;7.134;2023-03-09T09:07:06;6.73;;;6.00;;
71091;SDS011;58751;50.708;7.134;2023-03-09T09:09:32;8.77;;;6.63;;
71091;SDS011;58751;50.708;7.134;2023-03-09T09:11:57;9.23;;;7.20;;
71091;SDS011;58751;50.708;7.134;2023-03-09T09:14:23;6.00;;;5.37;;
71091;SDS011;58751;50.708;7.134;2023-03-09T09:16:50;6.77;;;6.07;;
71091;SDS011;58751;50.708;7.134;2023-03-09T09:19:15;7.85;;;5.78;;
71091;SDS011;58751;50.708;7.134;2023-03-09T09:21:40;6.73;;;5.93;;
71091;SDS011;58751;50.708;7.134;2023-03-09T09:24:05;6.93;;;6.20;;
71091;SDS011;58751;50.708;7.134;2023-03-09T09:26:31;9.10;;;7.37;;
71091;SDS011;58751;50.708;7.134;2023-03-09T09:28:56;8.33;;;7.50;;
71091;SDS011;58751;50.708;7.134;2023-03-09T09:31:21;6.37;;;5.77;;
71091;SDS011;58751;50.708;7.134;2023-03-09T09:33:48;8.30;;;7.40;;
71091;SDS011;58751;50.708;7.134;2023-03-09T09:36:13;8.10;;;7.30;;
71091;SDS011;58751;50.708;7.134;2023-03-09T09:38:39;9.13;;;6.80;;
71091;SDS011;58751;50.708;7.134;2023-03-09T09:41:06;6.73;;;6.07;;
71091;SDS011;58751;50.708;7.134;2023-03-09T09:43:31;5.80;;;5.18;;
71091;SDS011;58751;50.708;7.134;2023-03-09T09:45:58;7.10;;;5.30;;
71091;SDS011;58751;50.708;7.134;2023-03-09T09:48:24;5.85;;;5.30;;
71091;SDS011;58751;50.708;7.134;2023-03-09T09:50:57;5.55;;;4.60;;
71091;SDS011;58751;50.708;7.134;2023-03-09T09:53:28;4.28;;;3.88;;
71091;SDS011;58751;50.708;7.134;2023-03-09T09:55:55;3.20;;;2.90;;
71091;SDS011;58751;50.708;7.134;2023-03-09T09:58:25;3.00;;;2.47;;
71091;SDS011;58751;50.708;7.134;2023-03-09T10:00:53;3.83;;;3.60;;
71091;SDS011;58751;50.708;7.134;2023-03-09T10:03:19;3.00;;;2.80;;
71091;SDS011;58751;50.708;7.134;2023-03-09T10:05:48;2.60;;;2.40;;
71091;SDS011;58751;50.708;7.134;2023-03-09T10:08:21;3.20;;;2.90;;
71091;SDS011;58751;50.708;7.134;2023-03-09T10:10:47;2.20;;;2.00;;
71091;SDS011;58751;50.708;7.134;2023-03-09T10:13:13;2.30;;;1.57;;
71091;SDS011;58751;50.708;7.134;2023-03-09T10:15:39;1.65;;;1.55;;
71091;SDS011;58751;50.708;7.134;2023-03-09T10:18:05;2.10;;;1.90;;
71091;SDS011;58751;50.708;7.134;2023-03-09T10:20:32;1.95;;;1.35;;
71091;SDS011;58751;50.708;7.134;2023-03-09T10:23:00;2.08;;;1.95;;
71091;SDS011;58751;50.708;7.134;2023-03-09T10:25:30;2.03;;;1.85;;
71091;SDS011;58751;50.708;7.134;2023-03-09T10:27:58;1.38;;;1.27;;
71091;SDS011;58751;50.708;7.134;2023-03-09T10:30:28;2.03;;;1.70;;
71091;SDS011;58751;50.708;7.134;2023-03-09T10:32:55;1.55;;;1.45;;
71091;SDS011;58751;50.708;7.134;2023-03-09T10:35:22;2.05;;;1.73;;
71091;SDS011;58751;50.708;7.134;2023-03-09T10:37:49;2.15;;;1.58;;
71091;SDS011;58751;50.708;7.134;2023-03-09T10:40:16;1.75;;;1.65;;
71091;SDS011;58751;50.708;7.134;2023-03-09T10:42:43;3.40;;;1.92;;
71091;SDS011;58751;50.708;7.134;2023-03-09T10:45:15;2.00;;;1.85;;
71091;SDS011;58751;50.708;7.134;2023-03-09T10:47:55;2.10;;;1.90;;
71091;SDS011;58751;50.708;7.134;2023-03-09T10:50:20;2.10;;;1.90;;
71091;SDS011;58751;50.708;7.134;2023-03-09T10:52:46;3.30;;;2.27;;
71091;SDS011;58751;50.708;7.134;2023-03-09T10:55:21;1.97;;;1.87;;
71091;SDS011;58751;50.708;7.134;2023-03-09T10:57:54;1.98;;;1.88;;
71091;SDS011;58751;50.708;7.134;2023-03-09T11:00:20;2.47;;;2.28;;
71091;SDS011;58751;50.708;7.134;2023-03-09T11:02:50;2.80;;;2.60;;
71091;SDS011;58751;50.708;7.134;2023-03-09T11:05:17;3.72;;;3.08;;
71091;SDS011;58751;50.708;7.134;2023-03-09T11:07:48;8.80;;;2.33;;
71091;SDS011;58751;50.708;7.134;2023-03-09T11:10:20;3.08;;;2.88;;
71091;SDS011;58751;50.708;7.134;2023-03-09T11:12:46;3.20;;;2.90;;
71091;SDS011;58751;50.708;7.134;2023-03-09T11:15:24;3.80;;;3.50;;
71091;SDS011;58751;50.708;7.134;2023-03-09T11:17:49;11.90;;;2.88;;
71091;SDS011;58751;50.708;7.134;2023-03-09T11:20:22;3.03;;;2.87;;
71091;SDS011;58751;50.708;7.134;2023-03-09T11:22:49;2.97;;;2.78;;
71091;SDS011;58751;50.708;7.134;2023-03-09T11:25:16;3.60;;;3.30;;
71091;SDS011;58751;50.708;7.134;2023-03-09T11:27:42;3.67;;;3.38;;
71091;SDS011;58751;50.708;7.134;2023-03-09T11:30:15;3.10;;;2.80;;
71091;SDS011;58751;50.708;7.134;2023-03-09T11:32:43;3.53;;;3.25;;
71091;SDS011;58751;50.708;7.134;2023-03-09T11:35:10;3.03;;;2.72;;
71091;SDS011;58751;50.708;7.134;2023-03-09T11:37:37;3.45;;;3.15;;
71091;SDS011;58751;50.708;7.134;2023-03-09T11:40:04;3.20;;;2.92;;
71091;SDS011;58751;50.708;7.134;2023-03-09T11:42:32;2.40;;;2.20;;
71091;SDS011;58751;50.708;7.134;2023-03-09T11:44:58;1.90;;;1.80;;
71091;SDS011;58751;50.708;7.134;2023-03-09T11:47:25;4.50;;;2.63;;
71091;SDS011;58751;50.708;7.134;2023-03-09T11:49:54;2.30;;;2.13;;
71091;SDS011;58751;50.708;7.134;2023-03-09T11:52:22;2.50;;;2.30;;
71091;SDS011;58751;50.708;7.134;2023-03-09T11:54:50;2.97;;;2.78;;
71091;SDS011;58751;50.708;7.134;2023-03-09T11:57:18;2.07;;;1.97;;
71091;SDS011;58751;50.708;7.134;2023-03-09T11:59:46;4.60;;;2.30;;
71091;SDS011;58751;50.708;7.134;2023-03-09T12:02:15;2.10;;;2.00;;
71091;SDS011;58751;50.708;7.134;2023-03-09T12:04:46;2.78;;;2.58;;
71091;SDS011;58751;50.708;7.134;2023-03-09T12:07:14;2.60;;;2.40;;
71091;SDS011;58751;50.708;7.134;2023-03-09T12:09:45;2.50;;;2.30;;
71091;SDS011;58751;50.708;7.134;2023-03-09T12:12:18;3.70;;;2.40;;
71091;SDS011;58751;50.708;7.134;2023-03-09T12:14:45;2.80;;;2.60;;
71091;SDS011;58751;50.708;7.134;2023-03-09T12:17:15;3.53;;;2.65;;
71091;SDS011;58751;50.708;7.134;2023-03-09T12:19:44;2.80;;;2.40;;
71091;SDS011;58751;50.708;7.134;2023-03-09T12:22:15;3.63;;;2.72;;
71091;SDS011;58751;50.708;7.134;2023-03-09T12:24:41;2.65;;;2.40;;
71091;SDS011;58751;50.708;7.134;2023-03-09T12:27:16;2.95;;;2.65;;
71091;SDS011;58751;50.708;7.134;2023-03-09T12:29:43;2.90;;;2.70;;
71091;SDS011;58751;50.708;7.134;2023-03-09T12:32:14;4.18;;;2.65;;
71091;SDS011;58751;50.708;7.134;2023-03-09T12:34:41;4.50;;;3.20;;
71091;SDS011;58751;50.708;7.134;2023-03-09T12:39:56;3.80;;;3.00;;
71091;SDS011;58751;50.708;7.134;2023-03-09T12:42:27;4.07;;;3.70;;
71091;SDS011;58751;50.708;7.134;2023-03-09T12:45:03;4.32;;;3.92;;
71091;SDS011;58751;50.708;7.134;2023-03-09T12:47:35;4.05;;;3.75;;
71091;SDS011;58751;50.708;7.134;2023-03-09T12:50:00;7.18;;;4.05;;
71091;SDS011;58751;50.708;7.134;2023-03-09T12:52:34;4.00;;;3.70;;
71091;SDS011;58751;50.708;7.134;2023-03-09T12:55:10;4.93;;;4.50;;
71091;SDS011;58751;50.708;7.134;2023-03-09T12:57:37;5.13;;;4.55;;
71091;SDS011;58751;50.708;7.134;2023-03-09T13:00:22;5.00;;;4.60;;
71091;SDS011;58751;50.708;7.134;2023-03-09T13:02:48;9.88;;;4.20;;
71091;SDS011;58751;50.708;7.134;2023-03-09T13:05:23;4.70;;;3.50;;
71091;SDS011;58751;50.708;7.134;2023-03-09T13:07:53;4.72;;;3.90;;
71091;SDS011;58751;50.708;7.134;2023-03-09T13:10:22;3.60;;;3.30;;
71091;SDS011;58751;50.708;7.134;2023-03-09T13:12:53;3.35;;;3.15;;
71091;SDS011;58751;50.708;7.134;2023-03-09T13:15:19;5.60;;;4.30;;
71091;SDS011;58751;50.708;7.134;2023-03-09T13:17:50;3.95;;;3.65;;
71091;SDS011;58751;50.708;7.134;2023-03-09T13:20:32;4.85;;;4.45;;
71091;SDS011;58751;50.708;7.134;2023-03-09T13:22:58;3.58;;;3.28;;
71091;SDS011;58751;50.708;7.134;2023-03-09T13:25:39;3.97;;;3.63;;
71091;SDS011;58751;50.708;7.134;2023-03-09T13:30:55;3.72;;;3.35;;
71091;SDS011;58751;50.708;7.134;2023-03-09T13:33:23;4.05;;;3.65;;
71091;SDS011;58751;50.708;7.134;2023-03-09T13:35:49;5.07;;;4.25;;
71091;SDS011;58751;50.708;7.134;2023-03-09T13:38:17;3.50;;;3.25;;
71091;SDS011;58751;50.708;7.134;2023-03-09T13:40:49;4.47;;;4.10;;
71091;SDS011;58751;50.708;7.134;2023-03-09T13:43:17;3.60;;;3.30;;
71091;SDS011;58751;50.708;7.134;2023-03-09T13:45:52;4.88;;;4.20;;
71091;SDS011;58751;50.708;7.134;2023-03-09T13:48:18;3.40;;;3.20;;
71091;SDS011;58751;50.708;7.134;2023-03-09T13:50:43;4.17;;;3.70;;
71091;SDS011;58751;50.708;7.134;2023-03-09T13:53:19;5.37;;;3.90;;
71091;SDS011;58751;50.708;7.134;2023-03-09T13:55:54;6.18;;;4.22;;
71091;SDS011;58751;50.708;7.134;2023-03-09T13:58:19;4.25;;;3.85;;
71091;SDS011;58751;50.708;7.134;2023-03-09T14:00:50;4.32;;;3.95;;
71091;SDS011;58751;50.708;7.134;2023-03-09T14:03:15;4.10;;;3.70;;
71091;SDS011;58751;50.708;7.134;2023-03-09T14:05:41;3.70;;;3.40;;
71091;SDS011;58751;50.708;7.134;2023-03-09T14:08:12;6.50;;;4.40;;
71091;SDS011;58751;50.708;7.134;2023-03-09T14:10:39;5.25;;;4.75;;
71091;SDS011;58751;50.708;7.134;2023-03-09T14:13:06;4.90;;;3.00;;
71091;SDS011;58751;50.708;7.134;2023-03-09T14:15:36;4.68;;;3.10;;
71091;SDS011;58751;50.708;7.134;2023-03-09T14:18:02;2.80;;;1.70;;
71091;SDS011;58751;50.708;7.134;2023-03-09T14:20:29;5.87;;;1.97;;
71091;SDS011;58751;50.708;7.134;2023-03-09T14:22:58;2.17;;;1.98;;
71091;SDS011;58751;50.708;7.134;2023-03-09T14:25:38;11.55;;;1.90;;
71091;SDS011;58751;50.708;7.134;2023-03-09T14:28:04;6.40;;;1.23;;
71091;SDS011;58751;50.708;7.134;2023-03-09T14:30:49;3.20;;;1.20;;
71091;SDS011;58751;50.708;7.134;2023-03-09T14:33:21;9.45;;;1.65;;
71091;SDS011;58751;50.708;7.134;2023-03-09T14:35:46;4.85;;;1.60;;
71091;SDS011;58751;50.708;7.134;2023-03-09T14:38:16;4.93;;;1.20;;